Terminal Aerodrome Forecast
Issued by NWS Sioux Falls, SD

Home | Current Version | Previous Version | Graphics & Text | Print | Product List | Glossary Off
Versions: 1 2 3 4 5 6 7 8 9 10 11 12 13 14 15 16 17

780
FTUS43 KFSD 170521
TAFHON
TAF
KHON 170521Z 1706/1806 18006KT P6SM OVC090
     FM171200 25005KT P6SM BKN130
     FM171400 31007KT P6SM BKN110
     FM171800 32011G17KT P6SM BKN140
     FM180000 28006KT P6SM FEW250
     FM180200 15008KT P6SM SCT250=

USA.gov is the U.S. government's official web portal to all federal, state and local government web resources and services.